Weather at London City Airport

Public forecast

Using degrees Celsius for public forecast. Weather courtesy of forecast.io.

Current aviation weather report (METAR) for London City Airport

Retrieved 2020/10/28 12:20 UTC (1 hour ago):

EGLC 281220Z AUTO 23012KT 190V250 9999 SCT031 13/08 Q1002

Aviation forecast (TAF) for London City Airport

Forecast is more than 12 hours old.

Retrieved 2018/10/15 21:30 UTC (2 years ago):

TAF EGLC 152119Z 1521/1621 CNL